sensor_id;sensor_type;location;lat;lon;timestamp;temperature;humidity
6756;DHT22;3415;51.148;7.014;2024-02-21T04:06:00;8.70;1.00
6756;DHT22;3415;51.148;7.014;2024-02-21T04:08:27;8.70;1.00
6756;DHT22;3415;51.148;7.014;2024-02-21T04:10:54;8.70;1.00
6756;DHT22;3415;51.148;7.014;2024-02-21T04:13:21;8.70;1.00
6756;DHT22;3415;51.148;7.014;2024-02-21T04:15:48;8.80;1.00
6756;DHT22;3415;51.148;7.014;2024-02-21T04:18:15;8.70;1.00
6756;DHT22;3415;51.148;7.014;2024-02-21T04:20:43;8.80;1.00
6756;DHT22;3415;51.148;7.014;2024-02-21T04:23:10;8.70;1.00
6756;DHT22;3415;51.148;7.014;2024-02-21T04:25:37;4.60;1.00
6756;DHT22;3415;51.148;7.014;2024-02-21T04:28:05;8.70;1.00
6756;DHT22;3415;51.148;7.014;2024-02-21T04:30:32;8.70;1.00
6756;DHT22;3415;51.148;7.014;2024-02-21T04:32:59;8.70;1.00
6756;DHT22;3415;51.148;7.014;2024-02-21T04:35:26;8.70;1.00
6756;DHT22;3415;51.148;7.014;2024-02-21T04:37:55;8.60;1.00
6756;DHT22;3415;51.148;7.014;2024-02-21T04:40:22;8.60;1.00
6756;DHT22;3415;51.148;7.014;2024-02-21T04:42:49;8.70;1.00
6756;DHT22;3415;51.148;7.014;2024-02-21T04:45:16;8.70;1.00
6756;DHT22;3415;51.148;7.014;2024-02-21T04:47:43;8.60;1.00
6756;DHT22;3415;51.148;7.014;2024-02-21T04:50:10;8.70;1.00
6756;DHT22;3415;51.148;7.014;2024-02-21T04:52:38;8.70;1.00
6756;DHT22;3415;51.148;7.014;2024-02-21T04:55:07;8.70;1.00
6756;DHT22;3415;51.148;7.014;2024-02-21T04:57:34;8.70;1.00
6756;DHT22;3415;51.148;7.014;2024-02-21T05:02:29;8.70;1.00
6756;DHT22;3415;51.148;7.014;2024-02-21T05:04:56;8.70;1.00
6756;DHT22;3415;51.148;7.014;2024-02-21T05:07:23;8.70;1.00
6756;DHT22;3415;51.148;7.014;2024-02-21T05:09:50;8.60;1.00
6756;DHT22;3415;51.148;7.014;2024-02-21T05:12:18;8.60;1.00
6756;DHT22;3415;51.148;7.014;2024-02-21T05:14:45;8.60;1.00
6756;DHT22;3415;51.148;7.014;2024-02-21T05:17:12;8.60;1.00
6756;DHT22;3415;51.148;7.014;2024-02-21T05:19:39;8.60;1.00
6756;DHT22;3415;51.148;7.014;2024-02-21T05:22:06;8.60;1.00
6756;DHT22;3415;51.148;7.014;2024-02-21T05:24:33;8.60;1.00
6756;DHT22;3415;51.148;7.014;2024-02-21T05:29:28;8.50;1.00
6756;DHT22;3415;51.148;7.014;2024-02-21T05:31:56;8.60;1.00
6756;DHT22;3415;51.148;7.014;2024-02-21T05:36:51;8.60;1.00
6756;DHT22;3415;51.148;7.014;2024-02-21T05:39:18;8.60;1.00
6756;DHT22;3415;51.148;7.014;2024-02-21T05:41:48;8.60;1.00
6756;DHT22;3415;51.148;7.014;2024-02-21T05:44:15;8.60;1.00
6756;DHT22;3415;51.148;7.014;2024-02-21T05:46:43;8.60;1.00
6756;DHT22;3415;51.148;7.014;2024-02-21T05:49:10;8.60;1.00
6756;DHT22;3415;51.148;7.014;2024-02-21T05:51:37;8.60;1.00
6756;DHT22;3415;51.148;7.014;2024-02-21T05:54:04;8.60;1.00
6756;DHT22;3415;51.148;7.014;2024-02-21T05:56:32;8.60;1.00
6756;DHT22;3415;51.148;7.014;2024-02-21T05:58:59;8.60;1.00
6756;DHT22;3415;51.148;7.014;2024-02-21T06:01:27;8.60;1.00
6756;DHT22;3415;51.148;7.014;2024-02-21T06:03:55;8.60;1.00
6756;DHT22;3415;51.148;7.014;2024-02-21T06:06:22;8.60;1.00
6756;DHT22;3415;51.148;7.014;2024-02-21T06:08:50;8.60;1.00
6756;DHT22;3415;51.148;7.014;2024-02-21T06:11:17;8.60;1.00
6756;DHT22;3415;51.148;7.014;2024-02-21T06:13:44;8.60;1.00
6756;DHT22;3415;51.148;7.014;2024-02-21T06:16:11;8.60;1.00
6756;DHT22;3415;51.148;7.014;2024-02-21T06:18:38;8.60;1.00
6756;DHT22;3415;51.148;7.014;2024-02-21T06:21:06;8.60;1.00
6756;DHT22;3415;51.148;7.014;2024-02-21T06:23:33;8.60;1.00
6756;DHT22;3415;51.148;7.014;2024-02-21T06:26:00;8.90;1.00
6756;DHT22;3415;51.148;7.014;2024-02-21T06:30:55;8.60;1.00
6756;DHT22;3415;51.148;7.014;2024-02-21T06:33:21;8.50;1.00
6756;DHT22;3415;51.148;7.014;2024-02-21T06:35:50;8.50;1.00
6756;DHT22;3415;51.148;7.014;2024-02-21T06:38:20;8.50;1.00
6756;DHT22;3415;51.148;7.014;2024-02-21T06:40:47;8.60;1.00
6756;DHT22;3415;51.148;7.014;2024-02-21T06:43:18;8.60;1.00
6756;DHT22;3415;51.148;7.014;2024-02-21T06:45:46;8.60;1.00
6756;DHT22;3415;51.148;7.014;2024-02-21T06:48:16;8.60;1.00
6756;DHT22;3415;51.148;7.014;2024-02-21T06:53:12;8.60;1.00
6756;DHT22;3415;51.148;7.014;2024-02-21T06:55:40;8.60;1.00
6756;DHT22;3415;51.148;7.014;2024-02-21T06:58:07;8.60;1.00
6756;DHT22;3415;51.148;7.014;2024-02-21T07:00:38;8.60;1.00
6756;DHT22;3415;51.148;7.014;2024-02-21T07:03:05;8.60;1.00
6756;DHT22;3415;51.148;7.014;2024-02-21T07:05:32;8.60;1.00
6756;DHT22;3415;51.148;7.014;2024-02-21T07:07:59;8.60;1.00
6756;DHT22;3415;51.148;7.014;2024-02-21T07:10:26;8.70;1.00
6756;DHT22;3415;51.148;7.014;2024-02-21T07:12:54;8.70;1.00
6756;DHT22;3415;51.148;7.014;2024-02-21T07:15:22;8.70;1.00
6756;DHT22;3415;51.148;7.014;2024-02-21T07:17:52;8.60;1.00
6756;DHT22;3415;51.148;7.014;2024-02-21T07:22:46;8.70;1.00
6756;DHT22;3415;51.148;7.014;2024-02-21T07:25:13;8.70;1.00
6756;DHT22;3415;51.148;7.014;2024-02-21T07:30:10;8.70;1.00
6756;DHT22;3415;51.148;7.014;2024-02-21T07:35:05;8.70;1.00
6756;DHT22;3415;51.148;7.014;2024-02-21T07:37:36;8.80;1.00
6756;DHT22;3415;51.148;7.014;2024-02-21T07:40:04;8.70;1.00
6756;DHT22;3415;51.148;7.014;2024-02-21T07:42:32;8.70;1.00
6756;DHT22;3415;51.148;7.014;2024-02-21T07:44:59;8.70;1.00
6756;DHT22;3415;51.148;7.014;2024-02-21T07:47:27;8.70;1.00
6756;DHT22;3415;51.148;7.014;2024-02-21T07:49:54;8.70;1.00
6756;DHT22;3415;51.148;7.014;2024-02-21T07:52:21;8.70;1.00
6756;DHT22;3415;51.148;7.014;2024-02-21T07:54:48;8.70;1.00
6756;DHT22;3415;51.148;7.014;2024-02-21T07:57:15;8.70;1.00
6756;DHT22;3415;51.148;7.014;2024-02-21T07:59:42;8.70;1.00
6756;DHT22;3415;51.148;7.014;2024-02-21T08:02:09;8.70;1.00
6756;DHT22;3415;51.148;7.014;2024-02-21T08:04:37;8.70;1.00
6756;DHT22;3415;51.148;7.014;2024-02-21T08:07:04;8.70;1.00
6756;DHT22;3415;51.148;7.014;2024-02-21T08:09:31;8.70;1.00
6756;DHT22;3415;51.148;7.014;2024-02-21T08:11:58;8.70;1.00
6756;DHT22;3415;51.148;7.014;2024-02-21T08:14:25;8.70;1.00
6756;DHT22;3415;51.148;7.014;2024-02-21T08:16:52;8.70;1.00
6756;DHT22;3415;51.148;7.014;2024-02-21T08:19:20;8.60;1.00
6756;DHT22;3415;51.148;7.014;2024-02-21T08:24:17;8.70;1.00
6756;DHT22;3415;51.148;7.014;2024-02-21T08:26:44;8.70;1.00
6756;DHT22;3415;51.148;7.014;2024-02-21T08:29:11;8.60;1.00
6756;DHT22;3415;51.148;7.014;2024-02-21T08:31:38;8.60;1.00
6756;DHT22;3415;51.148;7.014;2024-02-21T08:34:05;8.60;1.00
6756;DHT22;3415;51.148;7.014;2024-02-21T08:36:34;8.60;1.00
6756;DHT22;3415;51.148;7.014;2024-02-21T08:39:03;8.70;1.00
6756;DHT22;3415;51.148;7.014;2024-02-21T08:41:31;8.70;1.00
6756;DHT22;3415;51.148;7.014;2024-02-21T08:43:59;8.70;1.00
6756;DHT22;3415;51.148;7.014;2024-02-21T08:46:27;8.70;1.00
6756;DHT22;3415;51.148;7.014;2024-02-21T08:48:54;8.70;1.00
6756;DHT22;3415;51.148;7.014;2024-02-21T08:51:21;8.70;1.00
6756;DHT22;3415;51.148;7.014;2024-02-21T08:53:48;8.70;1.00
6756;DHT22;3415;51.148;7.014;2024-02-21T08:56:16;8.70;1.00
6756;DHT22;3415;51.148;7.014;2024-02-21T08:58:43;8.70;1.00
6756;DHT22;3415;51.148;7.014;2024-02-21T09:03:39;8.70;1.00
6756;DHT22;3415;51.148;7.014;2024-02-21T09:06:07;8.80;1.00
6756;DHT22;3415;51.148;7.014;2024-02-21T09:08:34;8.70;1.00
6756;DHT22;3415;51.148;7.014;2024-02-21T09:11:01;8.70;1.00
6756;DHT22;3415;51.148;7.014;2024-02-21T09:13:30;8.80;1.00
6756;DHT22;3415;51.148;7.014;2024-02-21T09:18:24;8.80;1.00
6756;DHT22;3415;51.148;7.014;2024-02-21T09:20:51;8.80;1.00
6756;DHT22;3415;51.148;7.014;2024-02-21T09:23:18;8.80;1.00
6756;DHT22;3415;51.148;7.014;2024-02-21T09:25:45;8.90;1.00
6756;DHT22;3415;51.148;7.014;2024-02-21T09:28:12;8.90;1.00
6756;DHT22;3415;51.148;7.014;2024-02-21T09:30:40;9.00;1.00
6756;DHT22;3415;51.148;7.014;2024-02-21T09:33:07;8.90;1.00
6756;DHT22;3415;51.148;7.014;2024-02-21T09:38:02;9.00;1.00
6756;DHT22;3415;51.148;7.014;2024-02-21T09:40:30;9.00;1.00
6756;DHT22;3415;51.148;7.014;2024-02-21T09:43:02;9.10;1.00
6756;DHT22;3415;51.148;7.014;2024-02-21T09:45:32;9.10;1.00
6756;DHT22;3415;51.148;7.014;2024-02-21T09:48:29;9.20;1.00
6756;DHT22;3415;51.148;7.014;2024-02-21T09:51:01;9.20;1.00
6756;DHT22;3415;51.148;7.014;2024-02-21T09:53:31;9.50;1.00
6756;DHT22;3415;51.148;7.014;2024-02-21T09:55:59;9.50;1.00
6756;DHT22;3415;51.148;7.014;2024-02-21T09:58:27;9.50;1.00
6756;DHT22;3415;51.148;7.014;2024-02-21T10:00:54;9.60;1.00
6756;DHT22;3415;51.148;7.014;2024-02-21T10:03:22;9.50;1.00
6756;DHT22;3415;51.148;7.014;2024-02-21T10:05:53;9.80;1.00
6756;DHT22;3415;51.148;7.014;2024-02-21T10:08:20;9.80;1.00
6756;DHT22;3415;51.148;7.014;2024-02-21T10:13:25;10.70;1.00
6756;DHT22;3415;51.148;7.014;2024-02-21T10:16:06;11.00;1.00
6756;DHT22;3415;51.148;7.014;2024-02-21T10:18:34;11.10;1.00
6756;DHT22;3415;51.148;7.014;2024-02-21T10:21:04;11.20;1.00
6756;DHT22;3415;51.148;7.014;2024-02-21T10:23:42;11.20;1.00
6756;DHT22;3415;51.148;7.014;2024-02-21T10:28:37;10.80;1.00
6756;DHT22;3415;51.148;7.014;2024-02-21T10:31:07;10.70;1.00
6756;DHT22;3415;51.148;7.014;2024-02-21T10:33:35;10.60;1.00
6756;DHT22;3415;51.148;7.014;2024-02-21T10:36:08;10.50;1.00
6756;DHT22;3415;51.148;7.014;2024-02-21T10:38:37;10.30;1.00
6756;DHT22;3415;51.148;7.014;2024-02-21T10:41:05;10.20;1.00
6756;DHT22;3415;51.148;7.014;2024-02-21T10:43:38;10.30;1.00
6756;DHT22;3415;51.148;7.014;2024-02-21T10:46:07;10.30;1.00
6756;DHT22;3415;51.148;7.014;2024-02-21T10:48:42;10.30;1.00
6756;DHT22;3415;51.148;7.014;2024-02-21T10:51:15;10.40;1.00
6756;DHT22;3415;51.148;7.014;2024-02-21T10:53:53;10.40;1.00
6756;DHT22;3415;51.148;7.014;2024-02-21T10:56:28;10.40;1.00
6756;DHT22;3415;51.148;7.014;2024-02-21T10:58:58;10.40;1.00
6756;DHT22;3415;51.148;7.014;2024-02-21T11:01:25;10.40;1.00
6756;DHT22;3415;51.148;7.014;2024-02-21T11:03:55;10.40;1.00
6756;DHT22;3415;51.148;7.014;2024-02-21T11:06:26;10.50;1.00
6756;DHT22;3415;51.148;7.014;2024-02-21T11:09:04;10.60;1.00
6756;DHT22;3415;51.148;7.014;2024-02-21T11:11:35;10.70;1.00
6756;DHT22;3415;51.148;7.014;2024-02-21T11:14:07;11.40;1.00
6756;DHT22;3415;51.148;7.014;2024-02-21T11:16:38;11.40;1.00
6756;DHT22;3415;51.148;7.014;2024-02-21T11:19:10;11.80;1.00
6756;DHT22;3415;51.148;7.014;2024-02-21T11:21:46;11.80;1.00
6756;DHT22;3415;51.148;7.014;2024-02-21T11:24:18;11.70;1.00
6756;DHT22;3415;51.148;7.014;2024-02-21T11:26:52;11.50;1.00
6756;DHT22;3415;51.148;7.014;2024-02-21T11:29:23;11.50;1.00
6756;DHT22;3415;51.148;7.014;2024-02-21T11:31:50;11.50;1.00
6756;DHT22;3415;51.148;7.014;2024-02-21T11:34:18;11.40;1.00
6756;DHT22;3415;51.148;7.014;2024-02-21T11:36:51;11.40;1.00
6756;DHT22;3415;51.148;7.014;2024-02-21T11:39:23;11.20;1.00
6756;DHT22;3415;51.148;7.014;2024-02-21T11:42:04;11.20;1.00
6756;DHT22;3415;51.148;7.014;2024-02-21T11:44:33;11.00;1.00
6756;DHT22;3415;51.148;7.014;2024-02-21T11:47:01;11.20;1.00
6756;DHT22;3415;51.148;7.014;2024-02-21T11:49:29;11.30;1.00
6756;DHT22;3415;51.148;7.014;2024-02-21T11:52:01;11.10;1.00
6756;DHT22;3415;51.148;7.014;2024-02-21T11:54:29;13.50;1.00
6756;DHT22;3415;51.148;7.014;2024-02-21T11:56:56;11.20;1.00
6756;DHT22;3415;51.148;7.014;2024-02-21T11:59:23;11.10;1.00
6756;DHT22;3415;51.148;7.014;2024-02-21T12:04:18;11.00;1.00
6756;DHT22;3415;51.148;7.014;2024-02-21T12:06:46;10.90;1.00
6756;DHT22;3415;51.148;7.014;2024-02-21T12:09:15;10.90;1.00
6756;DHT22;3415;51.148;7.014;2024-02-21T12:11:43;10.90;1.00
6756;DHT22;3415;51.148;7.014;2024-02-21T12:14:10;10.80;1.00
6756;DHT22;3415;51.148;7.014;2024-02-21T12:16:37;10.80;1.00
6756;DHT22;3415;51.148;7.014;2024-02-21T12:19:04;10.80;1.00
6756;DHT22;3415;51.148;7.014;2024-02-21T12:21:33;10.80;1.00
6756;DHT22;3415;51.148;7.014;2024-02-21T12:24:11;10.80;1.00
6756;DHT22;3415;51.148;7.014;2024-02-21T12:26:41;10.80;1.00
6756;DHT22;3415;51.148;7.014;2024-02-21T12:31:35;10.70;1.00
6756;DHT22;3415;51.148;7.014;2024-02-21T12:34:02;10.90;1.00
6756;DHT22;3415;51.148;7.014;2024-02-21T12:36:29;11.10;1.00
6756;DHT22;3415;51.148;7.014;2024-02-21T12:38:56;11.20;1.00
6756;DHT22;3415;51.148;7.014;2024-02-21T12:41:23;11.10;1.00
6756;DHT22;3415;51.148;7.014;2024-02-21T12:43:53;11.10;1.00
6756;DHT22;3415;51.148;7.014;2024-02-21T12:46:22;11.20;1.00
6756;DHT22;3415;51.148;7.014;2024-02-21T12:51:16;11.20;1.00
6756;DHT22;3415;51.148;7.014;2024-02-21T12:53:46;11.30;1.00
6756;DHT22;3415;51.148;7.014;2024-02-21T12:56:15;11.30;1.00
6756;DHT22;3415;51.148;7.014;2024-02-21T12:58:42;11.30;1.00
6756;DHT22;3415;51.148;7.014;2024-02-21T13:01:11;11.50;1.00
6756;DHT22;3415;51.148;7.014;2024-02-21T13:03:38;11.70;1.00
6756;DHT22;3415;51.148;7.014;2024-02-21T13:06:05;11.70;1.00
6756;DHT22;3415;51.148;7.014;2024-02-21T13:08:36;11.70;1.00
6756;DHT22;3415;51.148;7.014;2024-02-21T13:11:03;11.70;1.00
6756;DHT22;3415;51.148;7.014;2024-02-21T13:13:30;11.70;1.00
6756;DHT22;3415;51.148;7.014;2024-02-21T13:15:58;11.70;1.00
6756;DHT22;3415;51.148;7.014;2024-02-21T13:18:26;11.70;1.00
6756;DHT22;3415;51.148;7.014;2024-02-21T13:20:53;11.70;1.00
6756;DHT22;3415;51.148;7.014;2024-02-21T13:23:20;11.70;1.00
6756;DHT22;3415;51.148;7.014;2024-02-21T13:25:47;11.80;1.00
6756;DHT22;3415;51.148;7.014;2024-02-21T13:28:14;11.90;1.00
6756;DHT22;3415;51.148;7.014;2024-02-21T13:30:42;11.90;1.00
6756;DHT22;3415;51.148;7.014;2024-02-21T13:33:09;11.70;1.00
6756;DHT22;3415;51.148;7.014;2024-02-21T13:35:37;11.80;1.00
6756;DHT22;3415;51.148;7.014;2024-02-21T13:38:04;11.80;1.00
6756;DHT22;3415;51.148;7.014;2024-02-21T13:40:31;11.80;1.00
6756;DHT22;3415;51.148;7.014;2024-02-21T13:42:58;11.70;1.00
6756;DHT22;3415;51.148;7.014;2024-02-21T13:45:26;11.70;1.00
6756;DHT22;3415;51.148;7.014;2024-02-21T13:47:53;11.70;1.00
6756;DHT22;3415;51.148;7.014;2024-02-21T13:50:23;11.70;1.00
6756;DHT22;3415;51.148;7.014;2024-02-21T13:52:55;11.80;1.00
6756;DHT22;3415;51.148;7.014;2024-02-21T13:55:22;11.60;99.90
6756;DHT22;3415;51.148;7.014;2024-02-21T13:57:51;11.60;99.90
6756;DHT22;3415;51.148;7.014;2024-02-21T14:00:18;11.50;99.90
6756;DHT22;3415;51.148;7.014;2024-02-21T14:02:46;11.50;99.90
6756;DHT22;3415;51.148;7.014;2024-02-21T14:05:13;11.50;99.90
6756;DHT22;3415;51.148;7.014;2024-02-21T14:07:40;11.40;99.90
6756;DHT22;3415;51.148;7.014;2024-02-21T14:10:09;11.40;1.00
6756;DHT22;3415;51.148;7.014;2024-02-21T14:12:36;11.40;1.00
6756;DHT22;3415;51.148;7.014;2024-02-21T14:15:03;11.40;1.00
6756;DHT22;3415;51.148;7.014;2024-02-21T14:17:31;11.50;99.90
6756;DHT22;3415;51.148;7.014;2024-02-21T14:19:58;11.40;1.00
6756;DHT22;3415;51.148;7.014;2024-02-21T14:22:25;11.40;99.90
6756;DHT22;3415;51.148;7.014;2024-02-21T14:27:23;11.50;99.90
6756;DHT22;3415;51.148;7.014;2024-02-21T14:32:17;11.50;99.90
6756;DHT22;3415;51.148;7.014;2024-02-21T14:34:44;11.50;99.90
6756;DHT22;3415;51.148;7.014;2024-02-21T14:37:11;11.50;99.90
6756;DHT22;3415;51.148;7.014;2024-02-21T14:42:06;11.40;99.90
6756;DHT22;3415;51.148;7.014;2024-02-21T14:44:36;11.30;1.00
6756;DHT22;3415;51.148;7.014;2024-02-21T14:47:03;11.30;1.00
6756;DHT22;3415;51.148;7.014;2024-02-21T14:49:30;11.30;1.00
6756;DHT22;3415;51.148;7.014;2024-02-21T14:51:57;11.20;1.00
6756;DHT22;3415;51.148;7.014;2024-02-21T14:54:24;11.30;1.00
6756;DHT22;3415;51.148;7.014;2024-02-21T14:56:51;11.30;1.00
6756;DHT22;3415;51.148;7.014;2024-02-21T14:59:20;11.30;1.00
6756;DHT22;3415;51.148;7.014;2024-02-21T15:01:49;11.30;1.00
6756;DHT22;3415;51.148;7.014;2024-02-21T15:04:16;11.30;1.00
6756;DHT22;3415;51.148;7.014;2024-02-21T15:06:42;11.30;1.00
6756;DHT22;3415;51.148;7.014;2024-02-21T15:09:10;11.30;1.00
6756;DHT22;3415;51.148;7.014;2024-02-21T15:14:05;11.20;1.00
6756;DHT22;3415;51.148;7.014;2024-02-21T15:16:31;11.20;1.00
6756;DHT22;3415;51.148;7.014;2024-02-21T15:19:00;11.30;1.00
6756;DHT22;3415;51.148;7.014;2024-02-21T15:21:28;11.20;1.00
6756;DHT22;3415;51.148;7.014;2024-02-21T15:23:56;11.10;1.00
6756;DHT22;3415;51.148;7.014;2024-02-21T15:26:23;11.10;1.00
6756;DHT22;3415;51.148;7.014;2024-02-21T15:28:50;11.10;1.00
6756;DHT22;3415;51.148;7.014;2024-02-21T15:31:21;11.10;1.00
6756;DHT22;3415;51.148;7.014;2024-02-21T15:33:51;11.10;1.00
6756;DHT22;3415;51.148;7.014;2024-02-21T15:36:20;11.00;1.00
6756;DHT22;3415;51.148;7.014;2024-02-21T15:38:47;11.10;1.00
6756;DHT22;3415;51.148;7.014;2024-02-21T15:43:42;11.10;1.00
6756;DHT22;3415;51.148;7.014;2024-02-21T15:46:11;11.00;1.00
6756;DHT22;3415;51.148;7.014;2024-02-21T15:51:05;10.90;1.00
6756;DHT22;3415;51.148;7.014;2024-02-21T15:53:34;11.00;1.00
6756;DHT22;3415;51.148;7.014;2024-02-21T15:56:01;10.90;1.00
6756;DHT22;3415;51.148;7.014;2024-02-21T15:58:29;10.90;1.00
6756;DHT22;3415;51.148;7.014;2024-02-21T16:00:58;10.90;1.00
6756;DHT22;3415;51.148;7.014;2024-02-21T16:05:52;10.90;99.90
6756;DHT22;3415;51.148;7.014;2024-02-21T16:08:19;10.90;99.90
6756;DHT22;3415;51.148;7.014;2024-02-21T16:10:47;10.80;1.00
6756;DHT22;3415;51.148;7.014;2024-02-21T16:13:14;10.80;1.00
6756;DHT22;3415;51.148;7.014;2024-02-21T16:18:10;10.80;1.00
6756;DHT22;3415;51.148;7.014;2024-02-21T16:20:37;10.60;1.00
6756;DHT22;3415;51.148;7.014;2024-02-21T16:23:04;10.70;1.00
6756;DHT22;3415;51.148;7.014;2024-02-21T16:25:33;10.30;1.00
6756;DHT22;3415;51.148;7.014;2024-02-21T16:28:01;9.90;1.00
6756;DHT22;3415;51.148;7.014;2024-02-21T16:30:29;9.80;1.00
6756;DHT22;3415;51.148;7.014;2024-02-21T16:32:56;9.70;1.00
6756;DHT22;3415;51.148;7.014;2024-02-21T16:35:23;9.70;1.00
6756;DHT22;3415;51.148;7.014;2024-02-21T16:37:53;9.70;1.00
6756;DHT22;3415;51.148;7.014;2024-02-21T16:40:20;9.70;1.00
6756;DHT22;3415;51.148;7.014;2024-02-21T16:42:47;9.60;1.00
6756;DHT22;3415;51.148;7.014;2024-02-21T16:45:17;9.60;1.00
6756;DHT22;3415;51.148;7.014;2024-02-21T16:47:44;9.60;1.00
6756;DHT22;3415;51.148;7.014;2024-02-21T16:50:11;9.60;1.00
6756;DHT22;3415;51.148;7.014;2024-02-21T16:52:38;9.70;1.00
6756;DHT22;3415;51.148;7.014;2024-02-21T16:55:07;9.80;1.00
6756;DHT22;3415;51.148;7.014;2024-02-21T17:00:02;9.80;1.00
6756;DHT22;3415;51.148;7.014;2024-02-21T17:02:38;9.80;1.00
6756;DHT22;3415;51.148;7.014;2024-02-21T17:05:06;9.80;1.00
6756;DHT22;3415;51.148;7.014;2024-02-21T17:07:34;9.80;1.00
6756;DHT22;3415;51.148;7.014;2024-02-21T17:10:01;9.80;1.00
6756;DHT22;3415;51.148;7.014;2024-02-21T17:12:30;9.80;1.00
6756;DHT22;3415;51.148;7.014;2024-02-21T17:14:58;9.80;1.00
6756;DHT22;3415;51.148;7.014;2024-02-21T17:17:25;9.90;1.00
6756;DHT22;3415;51.148;7.014;2024-02-21T17:19:53;9.80;1.00
6756;DHT22;3415;51.148;7.014;2024-02-21T17:24:47;9.90;1.00
6756;DHT22;3415;51.148;7.014;2024-02-21T17:27:14;9.90;1.00
6756;DHT22;3415;51.148;7.014;2024-02-21T17:32:08;9.80;1.00
6756;DHT22;3415;51.148;7.014;2024-02-21T17:34:35;9.70;1.00
6756;DHT22;3415;51.148;7.014;2024-02-21T17:37:04;9.50;1.00
6756;DHT22;3415;51.148;7.014;2024-02-21T17:39:31;9.10;1.00
6756;DHT22;3415;51.148;7.014;2024-02-21T17:41:58;9.10;1.00
6756;DHT22;3415;51.148;7.014;2024-02-21T17:44:25;8.90;1.00
6756;DHT22;3415;51.148;7.014;2024-02-21T17:46:52;8.70;1.00
6756;DHT22;3415;51.148;7.014;2024-02-21T17:51:46;8.60;1.00
6756;DHT22;3415;51.148;7.014;2024-02-21T17:54:15;8.50;1.00
6756;DHT22;3415;51.148;7.014;2024-02-21T17:56:42;8.40;1.00
6756;DHT22;3415;51.148;7.014;2024-02-21T17:59:09;8.40;1.00
6756;DHT22;3415;51.148;7.014;2024-02-21T18:01:38;8.30;1.00
6756;DHT22;3415;51.148;7.014;2024-02-21T18:04:05;8.40;1.00
6756;DHT22;3415;51.148;7.014;2024-02-21T18:06:32;8.30;1.00
6756;DHT22;3415;51.148;7.014;2024-02-21T18:08:59;8.30;1.00
6756;DHT22;3415;51.148;7.014;2024-02-21T18:11:28;8.50;1.00
6756;DHT22;3415;51.148;7.014;2024-02-21T18:13:55;8.20;1.00
6756;DHT22;3415;51.148;7.014;2024-02-21T18:16:23;8.20;1.00
6756;DHT22;3415;51.148;7.014;2024-02-21T18:18:50;8.10;1.00
6756;DHT22;3415;51.148;7.014;2024-02-21T18:21:18;8.10;1.00
6756;DHT22;3415;51.148;7.014;2024-02-21T18:26:12;8.00;1.00
6756;DHT22;3415;51.148;7.014;2024-02-21T18:28:41;8.00;1.00
6756;DHT22;3415;51.148;7.014;2024-02-21T18:31:08;7.90;1.00
6756;DHT22;3415;51.148;7.014;2024-02-21T18:33:35;7.90;1.00
6756;DHT22;3415;51.148;7.014;2024-02-21T18:36:03;7.90;1.00
6756;DHT22;3415;51.148;7.014;2024-02-21T18:38:30;7.90;1.00
6756;DHT22;3415;51.148;7.014;2024-02-21T18:40:57;7.90;1.00
6756;DHT22;3415;51.148;7.014;2024-02-21T18:43:24;7.80;1.00
6756;DHT22;3415;51.148;7.014;2024-02-21T18:45:52;7.70;1.00
6756;DHT22;3415;51.148;7.014;2024-02-21T18:50:47;7.70;1.00
6756;DHT22;3415;51.148;7.014;2024-02-21T18:55:42;7.60;1.00
6756;DHT22;3415;51.148;7.014;2024-02-21T18:58:09;7.60;1.00
6756;DHT22;3415;51.148;7.014;2024-02-21T19:00:37;7.50;1.00
6756;DHT22;3415;51.148;7.014;2024-02-21T19:03:05;7.60;1.00
6756;DHT22;3415;51.148;7.014;2024-02-21T19:08:00;7.60;3.00
6756;DHT22;3415;51.148;7.014;2024-02-21T19:10:27;7.50;21.00
6756;DHT22;3415;51.148;7.014;2024-02-21T19:12:54;7.50;22.80
6756;DHT22;3415;51.148;7.014;2024-02-21T19:15:21;7.50;41.50
6756;DHT22;3415;51.148;7.014;2024-02-21T19:17:48;7.50;38.90
6756;DHT22;3415;51.148;7.014;2024-02-21T19:20:16;7.50;96.10
6756;DHT22;3415;51.148;7.014;2024-02-21T19:22:44;7.50;99.10
6756;DHT22;3415;51.148;7.014;2024-02-21T19:27:42;7.40;99.90
6756;DHT22;3415;51.148;7.014;2024-02-21T19:30:10;7.40;99.90
6756;DHT22;3415;51.148;7.014;2024-02-21T19:32:37;7.40;99.90
6756;DHT22;3415;51.148;7.014;2024-02-21T19:37:38;7.40;99.90
6756;DHT22;3415;51.148;7.014;2024-02-21T19:40:07;7.40;99.90
6756;DHT22;3415;51.148;7.014;2024-02-21T19:42:35;7.40;99.90
6756;DHT22;3415;51.148;7.014;2024-02-21T19:45:03;7.40;99.90
6756;DHT22;3415;51.148;7.014;2024-02-21T19:47:31;7.40;99.90
6756;DHT22;3415;51.148;7.014;2024-02-21T19:49:58;7.40;99.90
6756;DHT22;3415;51.148;7.014;2024-02-21T19:52:25;7.40;99.90
6756;DHT22;3415;51.148;7.014;2024-02-21T19:54:54;7.40;99.90
6756;DHT22;3415;51.148;7.014;2024-02-21T19:59:50;7.40;99.90
6756;DHT22;3415;51.148;7.014;2024-02-21T20:02:19;7.40;99.90
6756;DHT22;3415;51.148;7.014;2024-02-21T20:04:49;7.40;99.90
6756;DHT22;3415;51.148;7.014;2024-02-21T20:07:16;7.50;99.90
6756;DHT22;3415;51.148;7.014;2024-02-21T20:12:14;7.50;99.90
6756;DHT22;3415;51.148;7.014;2024-02-21T20:14:42;7.50;99.90
6756;DHT22;3415;51.148;7.014;2024-02-21T20:17:09;7.50;99.90
6756;DHT22;3415;51.148;7.014;2024-02-21T20:19:39;7.60;99.90
6756;DHT22;3415;51.148;7.014;2024-02-21T20:22:07;7.60;99.90
6756;DHT22;3415;51.148;7.014;2024-02-21T20:24:34;7.70;99.90
6756;DHT22;3415;51.148;7.014;2024-02-21T20:27:02;7.60;99.90
6756;DHT22;3415;51.148;7.014;2024-02-21T20:29:37;7.70;99.90
6756;DHT22;3415;51.148;7.014;2024-02-21T20:32:04;7.70;99.90
6756;DHT22;3415;51.148;7.014;2024-02-21T20:34:32;7.70;99.90
6756;DHT22;3415;51.148;7.014;2024-02-21T20:39:31;7.80;99.90
6756;DHT22;3415;51.148;7.014;2024-02-21T20:41:58;7.80;99.90
6756;DHT22;3415;51.148;7.014;2024-02-21T20:44:25;7.80;99.90
6756;DHT22;3415;51.148;7.014;2024-02-21T20:46:54;7.80;99.90
6756;DHT22;3415;51.148;7.014;2024-02-21T20:49:22;7.80;99.90
6756;DHT22;3415;51.148;7.014;2024-02-21T20:51:49;7.80;99.90
6756;DHT22;3415;51.148;7.014;2024-02-21T20:54:16;7.80;99.90
6756;DHT22;3415;51.148;7.014;2024-02-21T20:56:44;7.80;99.90
6756;DHT22;3415;51.148;7.014;2024-02-21T20:59:12;7.80;99.90
6756;DHT22;3415;51.148;7.014;2024-02-21T21:01:39;7.80;99.90
6756;DHT22;3415;51.148;7.014;2024-02-21T21:04:08;7.80;99.90
6756;DHT22;3415;51.148;7.014;2024-02-21T21:06:35;7.80;99.90
6756;DHT22;3415;51.148;7.014;2024-02-21T21:09:03;7.80;1.00
6756;DHT22;3415;51.148;7.014;2024-02-21T21:14:02;7.70;1.00
6756;DHT22;3415;51.148;7.014;2024-02-21T21:16:29;7.80;1.00
6756;DHT22;3415;51.148;7.014;2024-02-21T21:18:58;7.80;1.00
6756;DHT22;3415;51.148;7.014;2024-02-21T21:21:26;7.70;1.00
6756;DHT22;3415;51.148;7.014;2024-02-21T21:26:21;7.70;1.00
6756;DHT22;3415;51.148;7.014;2024-02-21T21:28:48;7.80;1.00
6756;DHT22;3415;51.148;7.014;2024-02-21T21:31:15;7.80;1.00
6756;DHT22;3415;51.148;7.014;2024-02-21T21:33:43;7.80;1.00
6756;DHT22;3415;51.148;7.014;2024-02-21T21:36:10;7.80;1.00
6756;DHT22;3415;51.148;7.014;2024-02-21T21:38:38;7.80;1.00
6756;DHT22;3415;51.148;7.014;2024-02-21T21:41:06;7.80;1.00
6756;DHT22;3415;51.148;7.014;2024-02-21T21:46:09;7.80;1.00
6756;DHT22;3415;51.148;7.014;2024-02-21T21:48:38;7.80;1.00
6756;DHT22;3415;51.148;7.014;2024-02-21T21:53:32;7.80;1.00
6756;DHT22;3415;51.148;7.014;2024-02-21T21:56:01;7.80;1.00
6756;DHT22;3415;51.148;7.014;2024-02-21T21:58:30;7.80;1.00
6756;DHT22;3415;51.148;7.014;2024-02-21T22:00:57;7.80;1.00
6756;DHT22;3415;51.148;7.014;2024-02-21T22:03:24;7.80;1.00
6756;DHT22;3415;51.148;7.014;2024-02-21T22:05:51;7.80;1.00
6756;DHT22;3415;51.148;7.014;2024-02-21T22:08:18;7.80;1.00
6756;DHT22;3415;51.148;7.014;2024-02-21T22:13:15;7.80;1.00
6756;DHT22;3415;51.148;7.014;2024-02-21T22:15:41;7.80;1.00
6756;DHT22;3415;51.148;7.014;2024-02-21T22:18:08;7.80;1.00
6756;DHT22;3415;51.148;7.014;2024-02-21T22:20:36;7.80;1.00
6756;DHT22;3415;51.148;7.014;2024-02-21T22:23:03;7.80;1.00
